Decoded Metar for KLUK (CINCINNATI in OH, USA) (IATA:LUK) | Meteo·Mobile Aviation Weather
aviador You're here:

KLUK Decoded Metar

CINCINNATI in OH, USA
Report Time2018-09-20 08:29:00
UTC Time2018-09-20 08:37:50
Flight Rules mvfr MVFR
WindCalm
Visibility4828 m
Phenomena:Mist
Clouds:N/A
CeilingNone
Temp21°C (ISA +7)
Dew Point21°C (100% RH)
QNH1017 hPa
Density Alt1,522 ft
Elevation509 ft
Report Wrong Elevation
Raw Report
KLUK 200829Z AUTO 00000KT 3SM R21L/1200V6000FT BR CLR 21/21 A3004
RMK AO2 T02060206=

Extra information for KLUK:More info

Metar Taf Metar & Taf Last 4 Metars F.Rules Stats Wind Profile Meteogram Temp Stats Airport Information Weather charts Add Link Nearby VenuesMetar ALERT Operation Metar Decoded Social comments

AIRNAV info for KLUK